sensor_id;sensor_type;location;lat;lon;timestamp;pressure;altitude;pressure_sealevel;temperature;humidity
56142;BME280;42018;48.588;10.836;2023-03-29T00:01:12;97316.91;;;4.75;65.27
56142;BME280;42018;48.588;10.836;2023-03-29T00:03:57;97324.97;;;4.80;65.28
56142;BME280;42018;48.588;10.836;2023-03-29T00:06:44;97344.22;;;4.68;68.38
56142;BME280;42018;48.588;10.836;2023-03-29T00:09:31;97344.19;;;4.43;69.73
56142;BME280;42018;48.588;10.836;2023-03-29T00:12:17;97348.28;;;4.32;69.20
56142;BME280;42018;48.588;10.836;2023-03-29T00:15:02;97346.53;;;4.51;68.79
56142;BME280;42018;48.588;10.836;2023-03-29T00:17:48;97339.25;;;4.60;68.57
56142;BME280;42018;48.588;10.836;2023-03-29T00:20:33;97345.03;;;4.68;68.61
56142;BME280;42018;48.588;10.836;2023-03-29T00:23:19;97337.56;;;4.65;69.99
56142;BME280;42018;48.588;10.836;2023-03-29T00:26:06;97334.44;;;4.50;71.40
56142;BME280;42018;48.588;10.836;2023-03-29T00:28:52;97334.56;;;4.62;70.53
56142;BME280;42018;48.588;10.836;2023-03-29T00:31:37;97336.34;;;4.68;70.72
56142;BME280;42018;48.588;10.836;2023-03-29T00:34:22;97332.31;;;4.65;69.18
56142;BME280;42018;48.588;10.836;2023-03-29T00:37:08;97331.94;;;4.62;69.49
56142;BME280;42018;48.588;10.836;2023-03-29T00:39:53;97322.84;;;4.64;69.06
56142;BME280;42018;48.588;10.836;2023-03-29T00:42:38;97315.94;;;4.45;69.26
56142;BME280;42018;48.588;10.836;2023-03-29T00:45:27;97309.00;;;4.50;68.63
56142;BME280;42018;48.588;10.836;2023-03-29T00:48:16;97302.28;;;4.61;69.43
56142;BME280;42018;48.588;10.836;2023-03-29T00:51:02;97293.50;;;4.49;69.62
56142;BME280;42018;48.588;10.836;2023-03-29T00:53:52;97290.84;;;4.55;69.74
56142;BME280;42018;48.588;10.836;2023-03-29T00:56:40;97289.56;;;4.58;70.98
56142;BME280;42018;48.588;10.836;2023-03-29T00:59:27;97275.63;;;4.64;70.54
56142;BME280;42018;48.588;10.836;2023-03-29T01:02:16;97275.19;;;4.67;71.89
56142;BME280;42018;48.588;10.836;2023-03-29T01:05:07;97275.75;;;4.69;71.25
56142;BME280;42018;48.588;10.836;2023-03-29T01:07:56;97258.31;;;4.82;70.67
56142;BME280;42018;48.588;10.836;2023-03-29T01:10:54;97249.34;;;4.89;70.04
56142;BME280;42018;48.588;10.836;2023-03-29T01:13:43;97238.97;;;4.76;70.51
56142;BME280;42018;48.588;10.836;2023-03-29T01:16:31;97228.25;;;4.77;70.99
56142;BME280;42018;48.588;10.836;2023-03-29T01:19:17;97236.34;;;4.76;71.49
56142;BME280;42018;48.588;10.836;2023-03-29T01:22:38;97233.56;;;4.71;71.50
56142;BME280;42018;48.588;10.836;2023-03-29T01:25:18;97228.09;;;4.72;71.60
56142;BME280;42018;48.588;10.836;2023-03-29T01:28:10;97216.69;;;4.60;73.19
56142;BME280;42018;48.588;10.836;2023-03-29T01:31:43;97215.63;;;4.68;72.91
56142;BME280;42018;48.588;10.836;2023-03-29T01:34:14;97185.03;;;4.55;73.31
56142;BME280;42018;48.588;10.836;2023-03-29T01:39:48;97194.03;;;4.16;75.39
56142;BME280;42018;48.588;10.836;2023-03-29T01:45:21;97219.75;;;4.32;74.95
56142;BME280;42018;48.588;10.836;2023-03-29T01:48:08;97207.06;;;4.29;76.03
56142;BME280;42018;48.588;10.836;2023-03-29T01:50:55;97208.66;;;4.30;77.06
56142;BME280;42018;48.588;10.836;2023-03-29T01:54:03;97198.25;;;4.23;77.56
56142;BME280;42018;48.588;10.836;2023-03-29T01:56:50;97205.66;;;4.26;77.12
56142;BME280;42018;48.588;10.836;2023-03-29T01:59:37;97201.44;;;4.25;77.11
56142;BME280;42018;48.588;10.836;2023-03-29T02:02:23;97191.00;;;4.19;77.43
56142;BME280;42018;48.588;10.836;2023-03-29T02:05:11;97179.28;;;4.21;76.76
56142;BME280;42018;48.588;10.836;2023-03-29T02:07:59;97183.69;;;4.27;77.10
56142;BME280;42018;48.588;10.836;2023-03-29T02:10:45;97192.06;;;4.36;76.61
56142;BME280;42018;48.588;10.836;2023-03-29T02:13:31;97181.69;;;4.23;77.77
56142;BME280;42018;48.588;10.836;2023-03-29T02:16:16;97180.38;;;4.07;79.01
56142;BME280;42018;48.588;10.836;2023-03-29T02:19:02;97177.81;;;4.00;79.59
56142;BME280;42018;48.588;10.836;2023-03-29T02:22:06;97171.06;;;3.86;80.14
56142;BME280;42018;48.588;10.836;2023-03-29T02:24:54;97160.44;;;3.74;81.73
56142;BME280;42018;48.588;10.836;2023-03-29T02:27:43;97153.47;;;3.62;81.36
56142;BME280;42018;48.588;10.836;2023-03-29T02:30:43;97154.47;;;3.60;82.15
56142;BME280;42018;48.588;10.836;2023-03-29T02:33:33;97161.06;;;3.70;81.80
56142;BME280;42018;48.588;10.836;2023-03-29T02:36:24;97141.69;;;3.77;81.52
56142;BME280;42018;48.588;10.836;2023-03-29T02:39:12;97153.69;;;3.92;81.15
56142;BME280;42018;48.588;10.836;2023-03-29T02:41:59;97159.47;;;4.00;80.28
56142;BME280;42018;48.588;10.836;2023-03-29T02:44:45;97151.44;;;3.95;81.00
56142;BME280;42018;48.588;10.836;2023-03-29T02:47:44;97148.59;;;3.97;80.72
56142;BME280;42018;48.588;10.836;2023-03-29T02:50:32;97141.09;;;4.00;80.72
56142;BME280;42018;48.588;10.836;2023-03-29T02:53:21;97135.38;;;3.85;82.03
56142;BME280;42018;48.588;10.836;2023-03-29T02:56:08;97128.69;;;3.89;81.91
56142;BME280;42018;48.588;10.836;2023-03-29T02:58:53;97130.66;;;3.94;81.94
56142;BME280;42018;48.588;10.836;2023-03-29T03:01:39;97122.59;;;3.95;81.84
56142;BME280;42018;48.588;10.836;2023-03-29T03:04:26;97117.47;;;4.07;81.08
56142;BME280;42018;48.588;10.836;2023-03-29T03:07:12;97111.38;;;4.13;80.41
56142;BME280;42018;48.588;10.836;2023-03-29T03:09:57;97114.56;;;4.15;81.34
56142;BME280;42018;48.588;10.836;2023-03-29T03:12:43;97105.00;;;4.02;82.18
56142;BME280;42018;48.588;10.836;2023-03-29T03:15:28;97108.38;;;4.10;81.69
56142;BME280;42018;48.588;10.836;2023-03-29T03:18:15;97102.84;;;4.18;81.00
56142;BME280;42018;48.588;10.836;2023-03-29T03:21:00;97078.13;;;4.07;81.76
56142;BME280;42018;48.588;10.836;2023-03-29T03:23:46;97084.66;;;3.98;81.73
56142;BME280;42018;48.588;10.836;2023-03-29T03:26:32;97077.88;;;3.90;82.67
56142;BME280;42018;48.588;10.836;2023-03-29T03:29:17;97072.25;;;3.87;82.25
56142;BME280;42018;48.588;10.836;2023-03-29T03:32:03;97076.22;;;3.96;82.01
56142;BME280;42018;48.588;10.836;2023-03-29T03:34:48;97071.44;;;4.11;81.26
56142;BME280;42018;48.588;10.836;2023-03-29T03:37:33;97076.63;;;4.18;80.60
56142;BME280;42018;48.588;10.836;2023-03-29T03:40:18;97068.28;;;4.27;79.71
56142;BME280;42018;48.588;10.836;2023-03-29T03:43:04;97081.47;;;4.39;79.37
56142;BME280;42018;48.588;10.836;2023-03-29T03:45:50;97063.84;;;4.46;79.07
56142;BME280;42018;48.588;10.836;2023-03-29T03:48:36;97061.50;;;4.38;78.83
56142;BME280;42018;48.588;10.836;2023-03-29T03:51:21;97060.16;;;4.11;79.74
56142;BME280;42018;48.588;10.836;2023-03-29T03:54:06;97055.72;;;4.29;79.02
56142;BME280;42018;48.588;10.836;2023-03-29T03:56:52;97060.28;;;4.16;79.25
56142;BME280;42018;48.588;10.836;2023-03-29T03:59:37;97053.75;;;4.06;80.05
56142;BME280;42018;48.588;10.836;2023-03-29T04:02:23;97061.56;;;4.13;80.15
56142;BME280;42018;48.588;10.836;2023-03-29T04:05:08;97050.84;;;4.15;80.06
56142;BME280;42018;48.588;10.836;2023-03-29T04:07:53;97057.91;;;4.14;80.52
56142;BME280;42018;48.588;10.836;2023-03-29T04:10:40;97055.09;;;4.09;79.99
56142;BME280;42018;48.588;10.836;2023-03-29T04:13:25;97058.56;;;4.10;81.40
56142;BME280;42018;48.588;10.836;2023-03-29T04:16:11;97061.19;;;4.28;79.89
56142;BME280;42018;48.588;10.836;2023-03-29T04:18:56;97057.72;;;4.34;79.32
56142;BME280;42018;48.588;10.836;2023-03-29T04:21:42;97053.41;;;4.40;79.22
56142;BME280;42018;48.588;10.836;2023-03-29T04:24:29;97056.09;;;4.33;79.48
56142;BME280;42018;48.588;10.836;2023-03-29T04:27:15;97062.13;;;4.33;79.73
56142;BME280;42018;48.588;10.836;2023-03-29T04:30:00;97060.53;;;4.32;79.43
56142;BME280;42018;48.588;10.836;2023-03-29T04:32:46;97053.28;;;4.35;79.58
56142;BME280;42018;48.588;10.836;2023-03-29T04:35:31;97051.81;;;4.20;80.09
56142;BME280;42018;48.588;10.836;2023-03-29T04:38:17;97047.84;;;4.29;80.53
56142;BME280;42018;48.588;10.836;2023-03-29T04:41:07;97052.69;;;4.32;80.29
56142;BME280;42018;48.588;10.836;2023-03-29T04:44:00;97047.25;;;4.09;81.13
56142;BME280;42018;48.588;10.836;2023-03-29T04:46:49;97039.19;;;3.86;82.92
56142;BME280;42018;48.588;10.836;2023-03-29T04:49:34;97035.00;;;3.84;83.42
56142;BME280;42018;48.588;10.836;2023-03-29T04:52:20;97043.84;;;3.83;84.05
56142;BME280;42018;48.588;10.836;2023-03-29T04:55:05;97041.53;;;3.94;83.53
56142;BME280;42018;48.588;10.836;2023-03-29T04:57:51;97028.03;;;4.15;82.11
56142;BME280;42018;48.588;10.836;2023-03-29T05:00:37;97030.75;;;4.27;80.77
56142;BME280;42018;48.588;10.836;2023-03-29T05:03:23;97036.38;;;4.30;80.69
56142;BME280;42018;48.588;10.836;2023-03-29T05:06:09;97031.31;;;4.29;81.17
56142;BME280;42018;48.588;10.836;2023-03-29T05:08:55;97029.13;;;4.26;80.54
56142;BME280;42018;48.588;10.836;2023-03-29T05:11:41;97035.34;;;4.31;80.87
56142;BME280;42018;48.588;10.836;2023-03-29T05:14:26;97037.91;;;4.38;81.03
56142;BME280;42018;48.588;10.836;2023-03-29T05:17:11;97032.28;;;4.35;80.85
56142;BME280;42018;48.588;10.836;2023-03-29T05:19:56;97037.78;;;4.08;82.52
56142;BME280;42018;48.588;10.836;2023-03-29T05:22:42;97030.47;;;4.17;81.50
56142;BME280;42018;48.588;10.836;2023-03-29T05:25:27;97028.94;;;4.46;79.24
56142;BME280;42018;48.588;10.836;2023-03-29T05:28:13;97022.56;;;4.72;77.62
56142;BME280;42018;48.588;10.836;2023-03-29T05:31:02;97024.16;;;4.73;78.76
56142;BME280;42018;48.588;10.836;2023-03-29T05:33:50;97019.81;;;4.67;79.67
56142;BME280;42018;48.588;10.836;2023-03-29T05:36:35;97022.09;;;4.45;81.00
56142;BME280;42018;48.588;10.836;2023-03-29T05:39:22;97019.91;;;4.60;80.73
56142;BME280;42018;48.588;10.836;2023-03-29T05:42:07;97024.53;;;4.76;80.17
56142;BME280;42018;48.588;10.836;2023-03-29T05:44:56;97018.28;;;4.77;81.26
56142;BME280;42018;48.588;10.836;2023-03-29T05:47:41;97025.78;;;4.74;81.82
56142;BME280;42018;48.588;10.836;2023-03-29T05:50:26;97026.72;;;4.79;82.15
56142;BME280;42018;48.588;10.836;2023-03-29T05:53:12;97029.50;;;4.85;82.27
56142;BME280;42018;48.588;10.836;2023-03-29T05:55:57;97032.59;;;4.93;82.26
56142;BME280;42018;48.588;10.836;2023-03-29T05:58:42;97028.56;;;5.09;81.31
56142;BME280;42018;48.588;10.836;2023-03-29T06:01:27;97022.13;;;5.05;80.90
56142;BME280;42018;48.588;10.836;2023-03-29T06:04:13;97025.03;;;5.15;78.46
56142;BME280;42018;48.588;10.836;2023-03-29T06:06:58;97028.72;;;5.26;76.06
56142;BME280;42018;48.588;10.836;2023-03-29T06:09:46;97034.22;;;5.36;77.56
56142;BME280;42018;48.588;10.836;2023-03-29T06:12:31;97040.19;;;5.43;77.06
56142;BME280;42018;48.588;10.836;2023-03-29T06:15:16;97033.00;;;5.50;76.98
56142;BME280;42018;48.588;10.836;2023-03-29T06:18:02;97040.63;;;5.28;78.11
56142;BME280;42018;48.588;10.836;2023-03-29T06:20:51;97043.91;;;5.24;78.54
56142;BME280;42018;48.588;10.836;2023-03-29T06:23:36;97040.63;;;5.40;78.18
56142;BME280;42018;48.588;10.836;2023-03-29T06:26:21;97036.78;;;5.55;77.31
56142;BME280;42018;48.588;10.836;2023-03-29T06:29:07;97032.22;;;5.62;78.35
56142;BME280;42018;48.588;10.836;2023-03-29T06:31:53;97034.41;;;5.53;78.91
56142;BME280;42018;48.588;10.836;2023-03-29T06:34:38;97032.22;;;5.62;78.48
56142;BME280;42018;48.588;10.836;2023-03-29T06:37:24;97038.66;;;5.78;78.41
56142;BME280;42018;48.588;10.836;2023-03-29T06:40:10;97048.84;;;5.86;79.06
56142;BME280;42018;48.588;10.836;2023-03-29T06:42:55;97041.19;;;5.84;77.58
56142;BME280;42018;48.588;10.836;2023-03-29T06:45:41;97036.66;;;6.03;76.68
56142;BME280;42018;48.588;10.836;2023-03-29T06:48:27;97048.09;;;6.20;76.01
56142;BME280;42018;48.588;10.836;2023-03-29T06:51:13;97048.22;;;6.37;74.69
56142;BME280;42018;48.588;10.836;2023-03-29T06:53:58;97051.38;;;6.39;74.41
56142;BME280;42018;48.588;10.836;2023-03-29T06:56:43;97048.97;;;6.50;72.30
56142;BME280;42018;48.588;10.836;2023-03-29T06:59:30;97053.41;;;6.61;73.53
56142;BME280;42018;48.588;10.836;2023-03-29T07:02:15;97057.06;;;6.71;73.25
56142;BME280;42018;48.588;10.836;2023-03-29T07:05:01;97056.47;;;6.81;72.71
56142;BME280;42018;48.588;10.836;2023-03-29T07:07:50;97052.47;;;6.79;72.42
56142;BME280;42018;48.588;10.836;2023-03-29T07:10:40;97052.59;;;6.72;72.17
56142;BME280;42018;48.588;10.836;2023-03-29T07:13:26;97053.03;;;6.81;72.00
56142;BME280;42018;48.588;10.836;2023-03-29T07:16:11;97054.75;;;6.75;72.20
56142;BME280;42018;48.588;10.836;2023-03-29T07:18:57;97048.19;;;6.89;73.04
56142;BME280;42018;48.588;10.836;2023-03-29T07:21:42;97053.41;;;7.13;72.44
56142;BME280;42018;48.588;10.836;2023-03-29T07:24:28;97048.41;;;7.28;72.13
56142;BME280;42018;48.588;10.836;2023-03-29T07:27:13;97046.69;;;7.22;71.77
56142;BME280;42018;48.588;10.836;2023-03-29T07:29:58;97051.81;;;7.12;73.86
56142;BME280;42018;48.588;10.836;2023-03-29T07:32:44;97049.50;;;7.44;72.27
56142;BME280;42018;48.588;10.836;2023-03-29T07:35:30;97046.56;;;7.74;71.56
56142;BME280;42018;48.588;10.836;2023-03-29T07:38:16;97053.03;;;7.83;71.16
56142;BME280;42018;48.588;10.836;2023-03-29T07:41:03;97050.53;;;8.10;71.31
56142;BME280;42018;48.588;10.836;2023-03-29T07:43:48;97050.22;;;8.24;69.69
56142;BME280;42018;48.588;10.836;2023-03-29T07:46:35;97053.34;;;8.37;67.92
56142;BME280;42018;48.588;10.836;2023-03-29T07:49:21;97048.84;;;8.38;66.26
56142;BME280;42018;48.588;10.836;2023-03-29T07:52:06;97051.63;;;8.48;67.66
56142;BME280;42018;48.588;10.836;2023-03-29T07:54:55;97061.63;;;8.46;67.31
56142;BME280;42018;48.588;10.836;2023-03-29T07:57:43;97064.03;;;8.31;66.72
56142;BME280;42018;48.588;10.836;2023-03-29T08:00:28;97057.22;;;8.35;65.48
56142;BME280;42018;48.588;10.836;2023-03-29T08:03:13;97057.44;;;8.11;65.01
56142;BME280;42018;48.588;10.836;2023-03-29T08:06:02;97069.91;;;8.16;66.08
56142;BME280;42018;48.588;10.836;2023-03-29T08:08:47;97072.22;;;8.12;65.23
56142;BME280;42018;48.588;10.836;2023-03-29T08:11:33;97071.75;;;8.15;65.49
56142;BME280;42018;48.588;10.836;2023-03-29T08:14:18;97069.00;;;8.44;65.24
56142;BME280;42018;48.588;10.836;2023-03-29T08:17:05;97061.63;;;8.46;63.97
56142;BME280;42018;48.588;10.836;2023-03-29T08:19:51;97067.31;;;8.55;64.92
56142;BME280;42018;48.588;10.836;2023-03-29T08:22:36;97067.91;;;8.40;63.72
56142;BME280;42018;48.588;10.836;2023-03-29T08:25:22;97073.84;;;8.69;63.63
56142;BME280;42018;48.588;10.836;2023-03-29T08:28:07;97063.44;;;8.84;62.66
56142;BME280;42018;48.588;10.836;2023-03-29T08:30:52;97067.94;;;8.84;62.16
56142;BME280;42018;48.588;10.836;2023-03-29T08:33:38;97059.97;;;8.79;61.69
56142;BME280;42018;48.588;10.836;2023-03-29T08:36:23;97069.28;;;9.08;62.51
56142;BME280;42018;48.588;10.836;2023-03-29T08:39:08;97059.59;;;9.41;62.33
56142;BME280;42018;48.588;10.836;2023-03-29T08:48:00;97054.00;;;9.65;59.49
56142;BME280;42018;48.588;10.836;2023-03-29T08:50:55;97054.97;;;9.53;58.79
56142;BME280;42018;48.588;10.836;2023-03-29T08:53:44;97051.16;;;9.71;58.71
56142;BME280;42018;48.588;10.836;2023-03-29T08:56:32;97054.97;;;9.86;58.79
56142;BME280;42018;48.588;10.836;2023-03-29T08:59:23;97049.44;;;9.92;57.56
56142;BME280;42018;48.588;10.836;2023-03-29T09:02:16;97046.44;;;10.16;58.12
56142;BME280;42018;48.588;10.836;2023-03-29T09:05:05;97054.69;;;10.24;56.46
56142;BME280;42018;48.588;10.836;2023-03-29T09:07:52;97053.31;;;10.12;55.80
56142;BME280;42018;48.588;10.836;2023-03-29T09:10:42;97061.09;;;9.91;55.68
56142;BME280;42018;48.588;10.836;2023-03-29T09:33:37;97075.19;;;9.70;55.84
56142;BME280;42018;48.588;10.836;2023-03-29T09:39:25;97058.22;;;9.98;56.99
56142;BME280;42018;48.588;10.836;2023-03-29T09:42:11;97051.44;;;10.07;56.86
56142;BME280;42018;48.588;10.836;2023-03-29T09:45:02;97053.28;;;10.49;57.01
56142;BME280;42018;48.588;10.836;2023-03-29T09:47:54;97052.94;;;10.30;55.94
56142;BME280;42018;48.588;10.836;2023-03-29T09:50:42;97050.75;;;10.64;56.52
56142;BME280;42018;48.588;10.836;2023-03-29T09:53:30;97047.13;;;10.91;56.17
56142;BME280;42018;48.588;10.836;2023-03-29T09:56:16;97047.88;;;10.71;54.92
56142;BME280;42018;48.588;10.836;2023-03-29T09:59:02;97042.34;;;10.83;53.98
56142;BME280;42018;48.588;10.836;2023-03-29T10:01:48;97045.03;;;10.98;54.49
56142;BME280;42018;48.588;10.836;2023-03-29T10:04:33;97040.09;;;11.22;53.49
56142;BME280;42018;48.588;10.836;2023-03-29T10:07:19;97050.66;;;11.12;52.94
56142;BME280;42018;48.588;10.836;2023-03-29T10:10:08;97041.34;;;11.04;54.08
56142;BME280;42018;48.588;10.836;2023-03-29T10:13:03;97042.38;;;10.98;53.38
56142;BME280;42018;48.588;10.836;2023-03-29T10:16:16;97032.09;;;11.12;53.41
56142;BME280;42018;48.588;10.836;2023-03-29T10:18:54;97029.72;;;11.15;52.58
56142;BME280;42018;48.588;10.836;2023-03-29T10:21:40;97025.81;;;11.64;53.66
56142;BME280;42018;48.588;10.836;2023-03-29T10:24:26;97026.34;;;11.66;51.88
56142;BME280;42018;48.588;10.836;2023-03-29T10:27:12;97013.88;;;12.02;50.96
56142;BME280;42018;48.588;10.836;2023-03-29T10:29:57;97008.28;;;12.19;50.81
56142;BME280;42018;48.588;10.836;2023-03-29T10:32:43;97003.19;;;12.38;50.50
56142;BME280;42018;48.588;10.836;2023-03-29T10:35:31;96997.66;;;12.24;49.32
56142;BME280;42018;48.588;10.836;2023-03-29T10:38:22;96990.50;;;12.25;49.46
56142;BME280;42018;48.588;10.836;2023-03-29T10:41:08;96999.50;;;12.23;49.18
56142;BME280;42018;48.588;10.836;2023-03-29T10:44:01;97004.34;;;11.91;49.60
56142;BME280;42018;48.588;10.836;2023-03-29T10:46:47;97003.78;;;12.04;50.36
56142;BME280;42018;48.588;10.836;2023-03-29T10:49:38;97003.53;;;11.60;51.10
56142;BME280;42018;48.588;10.836;2023-03-29T10:52:24;97003.00;;;11.83;51.82
56142;BME280;42018;48.588;10.836;2023-03-29T10:55:12;97012.81;;;11.98;51.65
56142;BME280;42018;48.588;10.836;2023-03-29T10:58:12;97003.50;;;12.26;51.79
56142;BME280;42018;48.588;10.836;2023-03-29T11:01:04;97013.88;;;12.07;50.77
56142;BME280;42018;48.588;10.836;2023-03-29T11:04:02;97013.09;;;11.86;50.74
56142;BME280;42018;48.588;10.836;2023-03-29T11:06:55;97019.19;;;11.56;51.33
56142;BME280;42018;48.588;10.836;2023-03-29T11:09:51;97019.69;;;11.73;51.50
56142;BME280;42018;48.588;10.836;2023-03-29T11:32:46;97008.94;;;12.70;50.31
56142;BME280;42018;48.588;10.836;2023-03-29T11:35:51;97009.09;;;13.00;48.49
56142;BME280;42018;48.588;10.836;2023-03-29T11:38:38;97010.34;;;12.53;49.30
56142;BME280;42018;48.588;10.836;2023-03-29T11:41:33;97009.38;;;12.93;49.25
56142;BME280;42018;48.588;10.836;2023-03-29T11:44:19;97003.91;;;13.18;48.24
56142;BME280;42018;48.588;10.836;2023-03-29T11:47:12;96997.81;;;13.62;47.62
56142;BME280;42018;48.588;10.836;2023-03-29T11:50:00;96995.94;;;13.63;46.33
56142;BME280;42018;48.588;10.836;2023-03-29T11:52:49;96995.03;;;13.78;46.84
56142;BME280;42018;48.588;10.836;2023-03-29T11:55:37;96996.78;;;13.09;47.33
56142;BME280;42018;48.588;10.836;2023-03-29T11:58:30;97003.09;;;13.28;47.25
56142;BME280;42018;48.588;10.836;2023-03-29T12:01:22;97000.25;;;13.54;47.62
56142;BME280;42018;48.588;10.836;2023-03-29T12:04:20;96999.38;;;13.29;48.11
56142;BME280;42018;48.588;10.836;2023-03-29T12:10:17;96986.13;;;13.14;47.48
56142;BME280;42018;48.588;10.836;2023-03-29T12:16:13;96968.81;;;13.90;46.38
56142;BME280;42018;48.588;10.836;2023-03-29T12:19:02;96964.69;;;14.03;44.77
56142;BME280;42018;48.588;10.836;2023-03-29T12:21:49;96965.78;;;14.02;44.56
56142;BME280;42018;48.588;10.836;2023-03-29T12:24:36;96960.84;;;14.14;45.55
56142;BME280;42018;48.588;10.836;2023-03-29T12:27:27;96956.69;;;14.56;44.95
56142;BME280;42018;48.588;10.836;2023-03-29T12:39:19;96947.22;;;14.45;44.26
56142;BME280;42018;48.588;10.836;2023-03-29T12:42:06;96941.22;;;14.77;45.46
56142;BME280;42018;48.588;10.836;2023-03-29T12:44:57;96941.50;;;14.75;44.67
56142;BME280;42018;48.588;10.836;2023-03-29T12:47:43;96937.63;;;14.87;44.20
56142;BME280;42018;48.588;10.836;2023-03-29T12:53:24;96946.91;;;14.70;45.52
56142;BME280;42018;48.588;10.836;2023-03-29T13:07:29;96941.13;;;13.91;46.79
56142;BME280;42018;48.588;10.836;2023-03-29T13:13:34;96934.00;;;13.81;45.95
56142;BME280;42018;48.588;10.836;2023-03-29T13:16:27;96930.50;;;13.57;44.75
56142;BME280;42018;48.588;10.836;2023-03-29T13:19:30;96914.59;;;13.76;45.05
56142;BME280;42018;48.588;10.836;2023-03-29T13:40:32;96897.91;;;14.18;44.28
56142;BME280;42018;48.588;10.836;2023-03-29T13:46:23;96906.09;;;14.27;44.41
56142;BME280;42018;48.588;10.836;2023-03-29T13:49:18;96897.81;;;14.28;44.27
56142;BME280;42018;48.588;10.836;2023-03-29T13:52:09;96894.78;;;14.35;44.95
56142;BME280;42018;48.588;10.836;2023-03-29T13:55:02;96899.03;;;14.12;44.59
56142;BME280;42018;48.588;10.836;2023-03-29T13:57:52;96891.56;;;13.90;45.20
56142;BME280;42018;48.588;10.836;2023-03-29T14:03:24;96883.22;;;14.45;45.31
56142;BME280;42018;48.588;10.836;2023-03-29T14:06:14;96885.75;;;14.55;45.06
56142;BME280;42018;48.588;10.836;2023-03-29T14:09:03;96890.53;;;14.58;45.68
56142;BME280;42018;48.588;10.836;2023-03-29T14:11:50;96892.13;;;14.78;45.75
56142;BME280;42018;48.588;10.836;2023-03-29T14:14:35;96883.78;;;14.84;46.14
56142;BME280;42018;48.588;10.836;2023-03-29T14:17:21;96884.13;;;14.78;44.89
56142;BME280;42018;48.588;10.836;2023-03-29T14:20:08;96888.47;;;14.74;45.50
56142;BME280;42018;48.588;10.836;2023-03-29T14:22:58;96880.28;;;14.65;46.15
56142;BME280;42018;48.588;10.836;2023-03-29T14:25:44;96870.59;;;14.74;46.14
56142;BME280;42018;48.588;10.836;2023-03-29T14:28:29;96867.34;;;14.77;45.17
56142;BME280;42018;48.588;10.836;2023-03-29T14:31:18;96855.88;;;14.77;44.72
56142;BME280;42018;48.588;10.836;2023-03-29T14:34:05;96857.75;;;14.76;44.95
56142;BME280;42018;48.588;10.836;2023-03-29T14:36:51;96871.25;;;14.66;45.47
56142;BME280;42018;48.588;10.836;2023-03-29T14:39:37;96873.38;;;14.64;45.93
56142;BME280;42018;48.588;10.836;2023-03-29T14:42:25;96869.13;;;14.63;45.31
56142;BME280;42018;48.588;10.836;2023-03-29T14:45:12;96867.41;;;14.72;45.09
56142;BME280;42018;48.588;10.836;2023-03-29T14:47:58;96873.25;;;14.74;44.99
56142;BME280;42018;48.588;10.836;2023-03-29T14:50:44;96873.81;;;14.71;45.72
56142;BME280;42018;48.588;10.836;2023-03-29T14:53:30;96870.41;;;14.23;44.61
56142;BME280;42018;48.588;10.836;2023-03-29T14:56:18;96867.66;;;14.09;44.99
56142;BME280;42018;48.588;10.836;2023-03-29T14:59:27;96867.31;;;13.92;44.78
56142;BME280;42018;48.588;10.836;2023-03-29T15:05:20;96857.56;;;14.06;45.25
56142;BME280;42018;48.588;10.836;2023-03-29T15:08:06;96859.78;;;13.99;44.93
56142;BME280;42018;48.588;10.836;2023-03-29T15:10:54;96857.00;;;14.09;45.86
56142;BME280;42018;48.588;10.836;2023-03-29T15:13:40;96845.84;;;14.26;45.30
56142;BME280;42018;48.588;10.836;2023-03-29T15:16:27;96858.41;;;14.25;45.85
56142;BME280;42018;48.588;10.836;2023-03-29T15:19:15;96842.56;;;13.91;46.87
56142;BME280;42018;48.588;10.836;2023-03-29T15:22:02;96840.34;;;13.98;47.29
56142;BME280;42018;48.588;10.836;2023-03-29T15:24:49;96849.34;;;13.78;47.32
56142;BME280;42018;48.588;10.836;2023-03-29T15:27:41;96839.09;;;13.90;48.05
56142;BME280;42018;48.588;10.836;2023-03-29T15:30:42;96840.13;;;13.95;49.25
56142;BME280;42018;48.588;10.836;2023-03-29T15:33:31;96832.13;;;13.95;49.27
56142;BME280;42018;48.588;10.836;2023-03-29T15:36:17;96835.63;;;14.14;49.86
56142;BME280;42018;48.588;10.836;2023-03-29T15:39:02;96834.38;;;13.82;50.64
56142;BME280;42018;48.588;10.836;2023-03-29T15:41:48;96830.63;;;13.83;50.92
56142;BME280;42018;48.588;10.836;2023-03-29T15:44:34;96832.25;;;13.84;51.58
56142;BME280;42018;48.588;10.836;2023-03-29T15:47:21;96828.91;;;13.74;51.90
56142;BME280;42018;48.588;10.836;2023-03-29T15:50:07;96836.72;;;13.89;51.30
56142;BME280;42018;48.588;10.836;2023-03-29T15:52:52;96828.16;;;13.68;51.85
56142;BME280;42018;48.588;10.836;2023-03-29T15:55:44;96832.63;;;13.73;52.01
56142;BME280;42018;48.588;10.836;2023-03-29T15:58:30;96833.81;;;13.85;52.11
56142;BME280;42018;48.588;10.836;2023-03-29T16:01:29;96831.66;;;13.63;51.81
56142;BME280;42018;48.588;10.836;2023-03-29T16:04:19;96829.19;;;13.43;52.47
56142;BME280;42018;48.588;10.836;2023-03-29T16:07:05;96832.84;;;13.18;53.26
56142;BME280;42018;48.588;10.836;2023-03-29T16:09:51;96828.56;;;13.22;53.55
56142;BME280;42018;48.588;10.836;2023-03-29T16:12:36;96816.59;;;13.25;53.65
56142;BME280;42018;48.588;10.836;2023-03-29T16:15:22;96824.53;;;13.30;53.87
56142;BME280;42018;48.588;10.836;2023-03-29T16:18:08;96820.34;;;13.24;53.61
56142;BME280;42018;48.588;10.836;2023-03-29T16:20:53;96824.28;;;13.26;53.80
56142;BME280;42018;48.588;10.836;2023-03-29T16:23:39;96823.81;;;13.24;54.29
56142;BME280;42018;48.588;10.836;2023-03-29T16:26:25;96817.88;;;13.32;54.00
56142;BME280;42018;48.588;10.836;2023-03-29T16:29:11;96820.09;;;13.20;54.29
56142;BME280;42018;48.588;10.836;2023-03-29T16:31:59;96822.75;;;13.20;55.06
56142;BME280;42018;48.588;10.836;2023-03-29T16:34:44;96813.47;;;13.12;54.62
56142;BME280;42018;48.588;10.836;2023-03-29T16:37:30;96813.81;;;13.06;54.71